createdAt,value
2023-05-23T00:01:21.361Z,14.70
2023-05-23T00:03:49.287Z,13.93
2023-05-23T00:06:21.188Z,15.40
2023-05-23T00:08:48.021Z,17.10
2023-05-23T00:11:14.500Z,17.43
2023-05-23T00:13:41.696Z,20.33
2023-05-23T00:16:09.734Z,17.40
2023-05-23T00:18:43.197Z,17.33
2023-05-23T00:21:10.097Z,15.87
2023-05-23T00:23:42.379Z,14.90
2023-05-23T00:26:09.940Z,14.37
2023-05-23T00:28:39.327Z,15.07
2023-05-23T00:31:06.001Z,14.63
2023-05-23T00:33:34.315Z,13.03
2023-05-23T00:36:00.828Z,13.00
2023-05-23T00:38:28.441Z,13.50
2023-05-23T00:40:55.045Z,12.50
2023-05-23T00:43:22.764Z,14.93
2023-05-23T00:45:49.580Z,13.53
2023-05-23T00:48:19.140Z,11.57
2023-05-23T00:50:45.939Z,11.90
2023-05-23T00:53:12.591Z,12.70
2023-05-23T00:55:39.653Z,13.80
2023-05-23T00:58:06.621Z,14.07
2023-05-23T01:00:34.157Z,11.00
2023-05-23T01:03:01.332Z,14.30
2023-05-23T01:05:27.936Z,12.53
2023-05-23T01:07:54.605Z,11.00
2023-05-23T01:10:23.984Z,10.63
2023-05-23T01:13:32.758Z,10.60
2023-05-23T01:16:43.742Z,9.10
2023-05-23T01:19:40.772Z,8.30
2023-05-23T01:22:14.415Z,7.70
2023-05-23T01:24:57.566Z,7.40
2023-05-23T01:27:29.995Z,7.00
2023-05-23T01:29:57.911Z,6.70
2023-05-23T01:32:25.560Z,8.23
2023-05-23T01:34:55.914Z,7.13
2023-05-23T01:37:22.437Z,8.30
2023-05-23T01:39:49.153Z,7.87
2023-05-23T01:42:15.655Z,7.53
2023-05-23T01:44:42.659Z,7.80
2023-05-23T01:47:09.876Z,8.40
2023-05-23T01:49:37.342Z,8.80
2023-05-23T01:52:05.027Z,8.80
2023-05-23T01:54:32.800Z,7.53
2023-05-23T01:57:00.610Z,8.77
2023-05-23T01:59:27.197Z,7.77
2023-05-23T02:01:53.733Z,8.60
2023-05-23T02:04:20.283Z,9.00
2023-05-23T02:06:47.414Z,7.97
2023-05-23T02:09:14.409Z,8.47
2023-05-23T02:11:40.910Z,8.03
2023-05-23T02:14:07.781Z,9.10
2023-05-23T02:16:36.577Z,8.60
2023-05-23T02:19:03.564Z,8.60
2023-05-23T02:21:34.198Z,9.37
2023-05-23T02:24:01.634Z,9.13
2023-05-23T02:26:28.351Z,10.17
2023-05-23T02:28:55.058Z,11.40
2023-05-23T02:31:21.611Z,10.40
2023-05-23T02:33:48.195Z,11.50
2023-05-23T02:36:14.727Z,11.30
2023-05-23T02:38:41.398Z,10.93
2023-05-23T02:41:08.000Z,10.27
2023-05-23T02:43:34.520Z,10.87
2023-05-23T02:46:01.185Z,10.07
2023-05-23T02:48:27.678Z,10.93
2023-05-23T02:50:54.353Z,9.47
2023-05-23T02:53:21.088Z,10.20
2023-05-23T02:55:47.605Z,10.73
2023-05-23T02:58:14.970Z,9.73
2023-05-23T03:00:43.696Z,10.03
2023-05-23T03:03:10.335Z,10.30
2023-05-23T03:05:37.486Z,10.93
2023-05-23T03:08:07.101Z,11.10
2023-05-23T03:10:33.731Z,11.17
2023-05-23T03:13:00.295Z,10.47
2023-05-23T03:15:26.818Z,10.50
2023-05-23T03:17:53.379Z,10.60
2023-05-23T03:20:20.108Z,11.40
2023-05-23T03:22:46.581Z,12.03
2023-05-23T03:25:14.904Z,11.40
2023-05-23T03:27:41.389Z,11.23
2023-05-23T03:30:08.374Z,13.77
2023-05-23T03:32:34.902Z,12.43
2023-05-23T03:35:01.437Z,13.07
2023-05-23T03:37:27.932Z,12.20
2023-05-23T03:39:54.362Z,14.87
2023-05-23T03:42:21.064Z,14.40
2023-05-23T03:44:47.544Z,16.27
2023-05-23T03:47:14.019Z,17.50
2023-05-23T03:49:40.540Z,17.50
2023-05-23T03:52:07.564Z,18.00
2023-05-23T03:54:34.093Z,17.87
2023-05-23T03:57:00.780Z,16.53
2023-05-23T03:59:27.353Z,17.20
2023-05-23T04:01:54.060Z,16.80
2023-05-23T04:04:21.150Z,15.40
2023-05-23T04:06:48.696Z,16.30
2023-05-23T04:09:15.170Z,15.40
2023-05-23T04:11:42.470Z,16.47
2023-05-23T04:14:09.006Z,15.57
2023-05-23T04:16:38.101Z,15.20
2023-05-23T04:19:06.012Z,15.77
2023-05-23T04:21:32.982Z,16.77
2023-05-23T04:23:59.536Z,16.47
2023-05-23T04:26:26.019Z,15.70
2023-05-23T04:29:01.957Z,14.37
2023-05-23T04:31:28.547Z,13.57
2023-05-23T04:33:55.110Z,12.43
2023-05-23T04:36:23.493Z,13.80
2023-05-23T04:38:50.036Z,14.73
2023-05-23T04:41:16.590Z,14.87
2023-05-23T04:43:43.145Z,13.90
2023-05-23T04:46:10.211Z,13.40
2023-05-23T04:48:39.534Z,14.00
2023-05-23T04:51:06.461Z,12.40
2023-05-23T04:53:32.963Z,12.67
2023-05-23T04:55:59.694Z,12.63
2023-05-23T04:58:26.312Z,11.27
2023-05-23T05:00:53.066Z,11.37
2023-05-23T05:03:19.941Z,10.53
2023-05-23T05:05:46.399Z,12.00
2023-05-23T05:08:15.959Z,11.40
2023-05-23T05:10:42.880Z,13.27
2023-05-23T05:13:09.615Z,12.93
2023-05-23T05:15:36.211Z,12.27
2023-05-23T05:18:02.853Z,11.53
2023-05-23T05:20:29.508Z,11.27
2023-05-23T05:22:57.884Z,12.03
2023-05-23T05:25:24.920Z,10.50
2023-05-23T05:27:52.660Z,10.70
2023-05-23T05:30:19.624Z,11.80
2023-05-23T05:32:48.458Z,11.70
2023-05-23T05:35:15.110Z,11.37
2023-05-23T05:37:41.715Z,11.17
2023-05-23T05:40:09.086Z,11.87
2023-05-23T05:42:35.765Z,10.80
2023-05-23T05:45:02.332Z,11.27
2023-05-23T05:47:28.842Z,11.90
2023-05-23T05:49:55.454Z,11.47
2023-05-23T05:52:21.922Z,12.67
2023-05-23T05:54:48.444Z,11.50
2023-05-23T05:57:14.957Z,13.47
2023-05-23T05:59:41.428Z,12.90
2023-05-23T06:02:08.296Z,11.37
2023-05-23T06:04:34.842Z,13.10
2023-05-23T06:07:01.625Z,12.47
2023-05-23T06:09:28.118Z,12.57
2023-05-23T06:11:55.453Z,13.37
2023-05-23T06:14:22.052Z,12.03
2023-05-23T06:16:49.130Z,13.07
2023-05-23T06:19:15.698Z,12.70
2023-05-23T06:21:42.271Z,12.63
2023-05-23T06:24:08.785Z,13.77
2023-05-23T06:26:37.391Z,13.20
2023-05-23T06:29:03.865Z,13.70
2023-05-23T06:31:30.710Z,12.47
2023-05-23T06:33:57.286Z,14.87
2023-05-23T06:36:23.792Z,13.20
2023-05-23T06:38:50.308Z,14.47
2023-05-23T06:41:17.489Z,13.20
2023-05-23T06:43:43.958Z,12.27
2023-05-23T06:46:10.504Z,13.93
2023-05-23T06:48:38.643Z,12.90
2023-05-23T06:51:05.424Z,12.50
2023-05-23T06:53:32.131Z,12.40
2023-05-23T06:55:58.770Z,12.80
2023-05-23T06:58:25.316Z,11.40
2023-05-23T07:00:52.006Z,9.80
2023-05-23T07:03:18.561Z,10.90
2023-05-23T07:05:45.141Z,10.57
2023-05-23T07:08:14.812Z,7.80
2023-05-23T07:10:41.939Z,8.10
2023-05-23T07:13:09.000Z,7.10
2023-05-23T07:15:35.612Z,6.50
2023-05-23T07:18:02.303Z,6.60
2023-05-23T07:20:28.831Z,5.50
2023-05-23T07:22:55.335Z,5.60
2023-05-23T07:25:23.376Z,5.63
2023-05-23T07:27:50.610Z,5.73
2023-05-23T07:30:23.053Z,5.77
2023-05-23T07:32:49.735Z,6.13
2023-05-23T07:35:16.937Z,5.77
2023-05-23T07:37:44.464Z,5.40
2023-05-23T07:40:11.311Z,5.90
2023-05-23T07:42:37.825Z,5.60
2023-05-23T07:45:04.532Z,6.07
2023-05-23T07:47:31.011Z,6.00
2023-05-23T07:49:57.540Z,5.37
2023-05-23T07:52:24.061Z,6.63
2023-05-23T07:54:50.826Z,6.97
2023-05-23T07:57:17.372Z,7.47
2023-05-23T07:59:43.983Z,7.50
2023-05-23T08:02:10.470Z,6.97
2023-05-23T08:04:37.157Z,8.27
2023-05-23T08:07:06.171Z,7.20
2023-05-23T08:09:33.066Z,7.97
2023-05-23T08:12:01.154Z,8.17
2023-05-23T08:14:38.678Z,7.50
2023-05-23T08:17:15.129Z,7.50
2023-05-23T08:19:42.135Z,8.33
2023-05-23T08:22:08.725Z,7.57
2023-05-23T08:24:35.406Z,7.70
2023-05-23T08:27:01.949Z,7.70
2023-05-23T08:29:28.430Z,8.30
2023-05-23T08:31:54.925Z,7.10
2023-05-23T08:34:24.071Z,6.80
2023-05-23T08:36:51.109Z,7.00
2023-05-23T08:39:17.658Z,7.43
2023-05-23T08:41:44.304Z,7.47
2023-05-23T08:44:10.865Z,7.73
2023-05-23T08:46:45.828Z,7.20
2023-05-23T08:49:14.298Z,7.47
2023-05-23T08:51:43.709Z,6.87
2023-05-23T08:54:13.231Z,6.90
2023-05-23T08:56:41.092Z,6.33
2023-05-23T08:59:09.608Z,7.27
2023-05-23T09:01:36.162Z,6.50
2023-05-23T09:04:05.097Z,6.83
2023-05-23T09:06:32.361Z,6.43
2023-05-23T09:08:59.017Z,6.77
2023-05-23T09:11:25.801Z,6.03
2023-05-23T09:13:52.278Z,5.50
2023-05-23T09:16:19.267Z,6.50
2023-05-23T09:18:45.945Z,6.17
2023-05-23T09:21:14.490Z,6.07
2023-05-23T09:23:41.604Z,6.60
2023-05-23T09:26:09.848Z,6.33
2023-05-23T09:28:38.295Z,6.40
2023-05-23T09:31:08.752Z,7.53
2023-05-23T09:33:38.740Z,8.10
2023-05-23T09:36:06.291Z,8.07
2023-05-23T09:38:38.124Z,7.87
2023-05-23T09:41:04.656Z,8.27
2023-05-23T09:43:31.251Z,7.70
2023-05-23T09:46:10.244Z,8.30
2023-05-23T09:48:37.630Z,8.50
2023-05-23T09:51:09.352Z,7.47
2023-05-23T09:53:37.307Z,9.07
2023-05-23T09:56:04.368Z,7.80
2023-05-23T09:58:32.576Z,7.77
2023-05-23T10:01:03.725Z,7.87
2023-05-23T10:03:44.802Z,7.87
2023-05-23T10:06:27.348Z,8.33
2023-05-23T10:09:00.673Z,8.33
2023-05-23T10:11:33.423Z,7.30
2023-05-23T10:14:02.614Z,8.17
2023-05-23T10:16:52.418Z,7.40
2023-05-23T10:19:37.810Z,8.30
2023-05-23T10:22:07.385Z,8.50
2023-05-23T10:24:34.512Z,7.37
2023-05-23T10:27:01.448Z,8.03
2023-05-23T10:29:29.388Z,8.73
2023-05-23T10:31:56.571Z,8.17
2023-05-23T10:34:35.670Z,8.17
2023-05-23T10:37:06.401Z,7.00
2023-05-23T10:40:07.274Z,7.20
2023-05-23T10:43:27.289Z,8.63
2023-05-23T10:45:53.969Z,7.80
2023-05-23T10:48:41.528Z,8.13
2023-05-23T10:51:09.981Z,8.33
2023-05-23T10:53:38.865Z,9.67
2023-05-23T10:56:07.502Z,7.87
2023-05-23T10:58:35.437Z,8.33
2023-05-23T11:01:06.550Z,8.27
2023-05-23T11:03:38.431Z,7.00
2023-05-23T11:06:06.049Z,7.00
2023-05-23T11:08:47.875Z,6.77
2023-05-23T11:11:15.961Z,6.57
2023-05-23T11:13:55.450Z,7.17
2023-05-23T11:16:32.654Z,6.77
2023-05-23T11:19:21.852Z,6.33
2023-05-23T11:21:56.159Z,6.00
2023-05-23T11:24:23.313Z,6.50
2023-05-23T11:27:01.524Z,6.03
2023-05-23T11:29:28.853Z,6.67
2023-05-23T11:31:56.360Z,5.50
2023-05-23T11:34:26.069Z,5.80
2023-05-23T11:36:56.366Z,6.80
2023-05-23T11:39:23.271Z,5.83
2023-05-23T11:42:03.272Z,5.40
2023-05-23T11:44:30.280Z,6.57
2023-05-23T11:47:04.351Z,6.20
2023-05-23T11:49:31.863Z,5.20
2023-05-23T11:52:00.111Z,4.80
2023-05-23T11:54:27.384Z,6.03
2023-05-23T11:56:54.661Z,5.30
2023-05-23T11:59:22.795Z,5.63
2023-05-23T12:01:49.347Z,4.87
2023-05-23T12:04:15.977Z,4.97
2023-05-23T12:06:42.601Z,4.93
2023-05-23T12:09:11.663Z,4.30
2023-05-23T12:11:39.477Z,6.03
2023-05-23T12:14:06.689Z,5.03
2023-05-23T12:16:34.176Z,5.03
2023-05-23T12:19:02.212Z,5.83
2023-05-23T12:21:48.368Z,4.97
2023-05-23T12:24:18.682Z,4.20
2023-05-23T12:26:55.261Z,5.00
2023-05-23T12:29:35.106Z,5.00
2023-05-23T12:32:03.660Z,5.20
2023-05-23T12:34:31.655Z,4.47
2023-05-23T12:37:18.165Z,4.70
2023-05-23T12:39:45.961Z,4.43
2023-05-23T12:42:12.650Z,5.30
2023-05-23T12:44:43.760Z,4.40
2023-05-23T12:47:13.368Z,4.60
2023-05-23T12:49:40.713Z,5.17
2023-05-23T12:52:07.257Z,5.50
2023-05-23T12:54:33.816Z,5.30
2023-05-23T12:57:00.357Z,5.33
2023-05-23T12:59:27.127Z,4.70
2023-05-23T13:01:54.158Z,5.63
2023-05-23T13:04:20.754Z,5.33
2023-05-23T13:06:47.286Z,4.93
2023-05-23T13:09:14.351Z,5.57
2023-05-23T13:11:41.450Z,4.63
2023-05-23T13:14:10.665Z,4.90
2023-05-23T13:16:39.165Z,5.27
2023-05-23T13:19:05.750Z,5.37
2023-05-23T13:21:35.818Z,5.00
2023-05-23T13:24:02.322Z,4.90
2023-05-23T13:26:28.942Z,4.60
2023-05-23T13:28:55.625Z,5.73
2023-05-23T13:31:22.450Z,5.13
2023-05-23T13:33:48.987Z,5.00
2023-05-23T13:36:15.591Z,6.50
2023-05-23T13:38:42.063Z,5.53
2023-05-23T13:41:08.924Z,4.63
2023-05-23T13:43:36.424Z,4.80
2023-05-23T13:46:03.244Z,5.13
2023-05-23T13:48:29.803Z,5.10
2023-05-23T13:50:56.580Z,4.60
2023-05-23T13:53:23.204Z,4.40
2023-05-23T13:55:49.890Z,5.00
2023-05-23T13:58:16.436Z,4.73
2023-05-23T14:00:43.405Z,5.13
2023-05-23T14:03:10.402Z,4.40
2023-05-23T14:05:37.376Z,3.93
2023-05-23T14:08:04.598Z,4.03
2023-05-23T14:10:33.258Z,3.90
2023-05-23T14:12:59.779Z,4.30
2023-05-23T14:15:26.927Z,5.23
2023-05-23T14:17:55.474Z,4.63
2023-05-23T14:20:22.685Z,4.10
2023-05-23T14:22:49.986Z,5.03
2023-05-23T14:25:17.212Z,3.77
2023-05-23T14:27:44.159Z,4.57
2023-05-23T14:30:13.667Z,4.40
2023-05-23T14:32:40.415Z,4.10
2023-05-23T14:35:09.737Z,4.20
2023-05-23T14:37:36.633Z,4.60
2023-05-23T14:40:05.361Z,5.10
2023-05-23T14:42:34.897Z,4.03
2023-05-23T14:45:01.509Z,4.63
2023-05-23T14:47:28.089Z,4.07
2023-05-23T14:49:54.684Z,4.23
2023-05-23T14:52:21.448Z,4.00
2023-05-23T14:54:49.195Z,4.53
2023-05-23T14:57:16.745Z,4.10
2023-05-23T14:59:43.266Z,3.93
2023-05-23T15:02:10.012Z,4.10
2023-05-23T15:04:37.312Z,4.03
2023-05-23T15:07:04.143Z,4.30
2023-05-23T15:09:30.872Z,3.97
2023-05-23T15:11:57.623Z,4.70
2023-05-23T15:14:29.169Z,4.30
2023-05-23T15:16:56.425Z,4.67
2023-05-23T15:19:22.980Z,3.70
2023-05-23T15:21:52.126Z,4.63
2023-05-23T15:24:18.961Z,3.80
2023-05-23T15:26:45.529Z,3.73
2023-05-23T15:29:13.207Z,3.60
2023-05-23T15:31:39.727Z,4.40
2023-05-23T15:34:06.271Z,3.80
2023-05-23T15:36:32.815Z,4.10
2023-05-23T15:39:00.561Z,3.43
2023-05-23T15:41:27.907Z,3.90
2023-05-23T15:43:54.402Z,3.17
2023-05-23T15:46:20.936Z,3.57
2023-05-23T15:48:47.410Z,3.73
2023-05-23T15:51:13.913Z,3.80
2023-05-23T15:53:58.947Z,3.27
2023-05-23T15:56:26.220Z,3.60
2023-05-23T15:58:52.785Z,3.87
2023-05-23T16:01:19.420Z,4.10
2023-05-23T16:03:46.639Z,3.63
2023-05-23T16:06:13.710Z,3.40
2023-05-23T16:08:40.280Z,3.83
2023-05-23T16:11:06.773Z,2.93
2023-05-23T16:13:33.297Z,3.70
2023-05-23T16:15:59.956Z,2.83
2023-05-23T16:18:26.618Z,4.60
2023-05-23T16:20:53.249Z,3.20
2023-05-23T16:23:19.737Z,3.70
2023-05-23T16:25:46.232Z,3.40
2023-05-23T16:28:12.682Z,3.73
2023-05-23T16:30:39.271Z,4.00
2023-05-23T16:33:05.935Z,2.97
2023-05-23T16:35:32.587Z,3.17
2023-05-23T16:37:59.122Z,4.43
2023-05-23T16:40:25.612Z,3.60
2023-05-23T16:42:52.155Z,3.77
2023-05-23T16:45:18.775Z,4.07
2023-05-23T16:47:45.398Z,3.50
2023-05-23T16:50:12.167Z,4.70
2023-05-23T16:52:40.084Z,3.83
2023-05-23T16:55:07.045Z,3.40
2023-05-23T16:57:33.592Z,3.03
2023-05-23T17:00:00.125Z,3.90
2023-05-23T17:02:29.588Z,3.27
2023-05-23T17:05:00.038Z,3.90
2023-05-23T17:07:26.615Z,3.53
2023-05-23T17:09:53.364Z,3.53
2023-05-23T17:12:20.186Z,2.47
2023-05-23T17:14:48.892Z,3.93
2023-05-23T17:17:18.288Z,2.93
2023-05-23T17:19:44.962Z,4.30
2023-05-23T17:22:11.640Z,3.57
2023-05-23T17:24:38.153Z,3.33
2023-05-23T17:27:05.251Z,3.70
2023-05-23T17:29:31.873Z,4.00
2023-05-23T17:31:58.501Z,3.33
2023-05-23T17:34:25.536Z,3.50
2023-05-23T17:36:53.166Z,3.20
2023-05-23T17:39:21.562Z,3.40
2023-05-23T17:41:51.867Z,3.13
2023-05-23T17:44:18.406Z,3.83
2023-05-23T17:46:45.160Z,6.53
2023-05-23T17:49:11.798Z,3.60
2023-05-23T17:51:38.401Z,3.60
2023-05-23T17:54:04.978Z,3.57
2023-05-23T17:56:32.000Z,3.20
2023-05-23T17:58:58.596Z,2.93
2023-05-23T18:01:26.231Z,3.67
2023-05-23T18:03:54.476Z,3.47
2023-05-23T18:06:21.219Z,4.07
2023-05-23T18:08:47.973Z,3.07
2023-05-23T18:11:14.516Z,3.50
2023-05-23T18:13:42.501Z,4.17
2023-05-23T18:16:09.386Z,3.60
2023-05-23T18:18:35.970Z,3.10
2023-05-23T18:21:02.689Z,3.53
2023-05-23T18:23:29.264Z,4.10
2023-05-23T18:25:55.782Z,3.77
2023-05-23T18:28:22.252Z,3.23
2023-05-23T18:30:58.741Z,3.70
2023-05-23T18:33:25.499Z,4.40
2023-05-23T18:36:07.103Z,3.50
2023-05-23T18:38:34.125Z,4.20
2023-05-23T18:41:00.798Z,3.53
2023-05-23T18:43:27.378Z,3.27
2023-05-23T18:45:53.890Z,3.40
2023-05-23T18:48:20.689Z,3.40
2023-05-23T18:50:47.231Z,3.73
2023-05-23T18:53:14.033Z,3.20
2023-05-23T18:55:40.546Z,4.40
2023-05-23T18:58:07.217Z,3.07
2023-05-23T19:00:36.541Z,4.90
2023-05-23T19:03:03.333Z,3.90
2023-05-23T19:05:30.122Z,3.70
2023-05-23T19:07:56.624Z,3.40
2023-05-23T19:10:23.135Z,3.70
2023-05-23T19:12:49.663Z,3.50
2023-05-23T19:15:19.350Z,3.67
2023-05-23T19:17:46.640Z,3.20
2023-05-23T19:20:14.571Z,3.47
2023-05-23T19:22:50.867Z,4.07
2023-05-23T19:25:20.046Z,3.37
2023-05-23T19:27:46.941Z,3.90
2023-05-23T19:30:13.603Z,3.50
2023-05-23T19:32:44.680Z,3.10
2023-05-23T19:35:11.617Z,3.20
2023-05-23T19:37:39.481Z,3.33
2023-05-23T19:40:07.119Z,3.43
2023-05-23T19:42:34.102Z,3.80
2023-05-23T19:45:04.033Z,3.63
2023-05-23T19:47:32.389Z,3.33
2023-05-23T19:49:58.894Z,3.10
2023-05-23T19:52:25.393Z,3.13
2023-05-23T19:54:52.148Z,3.37
2023-05-23T19:57:18.703Z,3.20
2023-05-23T19:59:48.084Z,3.00
2023-05-23T20:02:14.589Z,3.20
2023-05-23T20:04:41.619Z,3.40
2023-05-23T20:07:08.116Z,3.13
2023-05-23T20:09:34.928Z,3.17
2023-05-23T20:12:01.466Z,3.73
2023-05-23T20:14:31.290Z,3.73
2023-05-23T20:16:57.926Z,3.70
2023-05-23T20:19:24.557Z,2.90
2023-05-23T20:21:51.118Z,2.90
2023-05-23T20:24:17.856Z,3.70
2023-05-23T20:26:44.468Z,3.40
2023-05-23T20:29:11.004Z,2.50
2023-05-23T20:31:38.496Z,4.60
2023-05-23T20:34:05.088Z,3.20
2023-05-23T20:36:31.550Z,2.70
2023-05-23T20:38:58.170Z,3.80
2023-05-23T20:41:24.848Z,2.77
2023-05-23T20:43:51.360Z,3.57
2023-05-23T20:46:21.289Z,3.00
2023-05-23T20:48:49.596Z,2.90
2023-05-23T20:51:16.273Z,3.13
2023-05-23T20:53:42.776Z,3.03
2023-05-23T20:56:12.213Z,3.50
2023-05-23T20:58:38.753Z,3.07
2023-05-23T21:01:05.284Z,3.00
2023-05-23T21:03:31.977Z,3.50
2023-05-23T21:05:58.472Z,2.90
2023-05-23T21:08:24.965Z,3.43
2023-05-23T21:10:54.405Z,2.77
2023-05-23T21:13:21.444Z,3.13
2023-05-23T21:15:48.056Z,3.40
2023-05-23T21:18:14.771Z,3.60
2023-05-23T21:20:41.595Z,3.13
2023-05-23T21:23:08.292Z,3.13
2023-05-23T21:25:34.851Z,3.60
2023-05-23T21:28:01.346Z,3.50
2023-05-23T21:30:27.847Z,3.03
2023-05-23T21:32:54.455Z,3.37
2023-05-23T21:35:21.252Z,4.00
2023-05-23T21:37:47.734Z,3.30
2023-05-23T21:40:14.291Z,3.33
2023-05-23T21:42:47.807Z,2.87
2023-05-23T21:45:14.299Z,3.47
2023-05-23T21:47:40.991Z,4.30
2023-05-23T21:50:08.420Z,3.50
2023-05-23T21:52:34.996Z,3.20
2023-05-23T21:55:01.510Z,3.57
2023-05-23T21:57:27.970Z,2.87
2023-05-23T21:59:54.454Z,3.13
2023-05-23T22:02:21.155Z,3.23
2023-05-23T22:04:47.719Z,2.67
2023-05-23T22:07:14.165Z,2.70
2023-05-23T22:09:41.754Z,2.63
2023-05-23T22:12:08.469Z,3.07
2023-05-23T22:14:34.999Z,3.87
2023-05-23T22:17:02.269Z,2.83
2023-05-23T22:19:29.958Z,2.77
2023-05-23T22:21:56.974Z,3.10
2023-05-23T22:24:23.951Z,2.60
2023-05-23T22:26:50.745Z,2.90
2023-05-23T22:29:18.255Z,3.27
2023-05-23T22:31:44.882Z,2.70
2023-05-23T22:34:11.502Z,3.10
2023-05-23T22:36:38.971Z,2.97
2023-05-23T22:39:06.059Z,2.70
2023-05-23T22:41:32.669Z,2.97
2023-05-23T22:43:59.122Z,3.43
2023-05-23T22:46:25.716Z,3.50
2023-05-23T22:48:52.583Z,2.70
2023-05-23T22:51:19.783Z,3.27
2023-05-23T22:53:46.281Z,3.60
2023-05-23T22:56:12.764Z,3.77
2023-05-23T22:58:39.297Z,2.53
2023-05-23T23:01:06.001Z,3.70
2023-05-23T23:03:32.882Z,3.07
2023-05-23T23:05:59.672Z,3.23
2023-05-23T23:08:26.836Z,3.27
2023-05-23T23:10:53.290Z,3.60
2023-05-23T23:13:19.885Z,3.53
2023-05-23T23:15:49.649Z,3.47
2023-05-23T23:18:16.664Z,2.97
2023-05-23T23:20:43.537Z,3.63
2023-05-23T23:23:10.419Z,3.07
2023-05-23T23:25:36.977Z,4.30
2023-05-23T23:28:03.587Z,2.60
2023-05-23T23:30:30.141Z,3.30
2023-05-23T23:32:56.657Z,3.50
2023-05-23T23:35:23.285Z,3.10
2023-05-23T23:37:50.073Z,3.10
2023-05-23T23:40:16.781Z,2.83
2023-05-23T23:42:43.242Z,3.10
2023-05-23T23:45:10.452Z,3.23
2023-05-23T23:47:38.841Z,3.20
2023-05-23T23:50:06.659Z,3.17
2023-05-23T23:52:33.642Z,2.67
2023-05-23T23:55:00.194Z,4.13
2023-05-23T23:57:26.661Z,2.50
2023-05-23T23:59:53.126Z,3.10
